sensor_id;sensor_type;location;lat;lon;timestamp;P1;durP1;ratioP1;P2;durP2;ratioP2
70420;SDS011;57848;51.938;15.520;2023-03-23T00:00:03;7.03;;;2.20;;
70420;SDS011;57848;51.938;15.520;2023-03-23T00:02:35;9.00;;;2.63;;
70420;SDS011;57848;51.938;15.520;2023-03-23T00:05:03;7.07;;;2.23;;
70420;SDS011;57848;51.938;15.520;2023-03-23T00:07:29;8.73;;;2.72;;
70420;SDS011;57848;51.938;15.520;2023-03-23T00:09:55;7.57;;;2.50;;
70420;SDS011;57848;51.938;15.520;2023-03-23T00:12:21;9.05;;;2.63;;
70420;SDS011;57848;51.938;15.520;2023-03-23T00:15:07;8.60;;;2.90;;
70420;SDS011;57848;51.938;15.520;2023-03-23T00:17:33;9.03;;;2.37;;
70420;SDS011;57848;51.938;15.520;2023-03-23T00:20:00;8.93;;;2.85;;
70420;SDS011;57848;51.938;15.520;2023-03-23T00:22:26;9.27;;;3.00;;
70420;SDS011;57848;51.938;15.520;2023-03-23T00:24:53;8.70;;;2.50;;
70420;SDS011;57848;51.938;15.520;2023-03-23T00:27:21;8.88;;;3.00;;
70420;SDS011;57848;51.938;15.520;2023-03-23T00:29:48;9.73;;;4.10;;
70420;SDS011;57848;51.938;15.520;2023-03-23T00:32:18;9.13;;;3.22;;
70420;SDS011;57848;51.938;15.520;2023-03-23T00:34:46;8.45;;;3.47;;
70420;SDS011;57848;51.938;15.520;2023-03-23T00:37:13;10.15;;;3.63;;
70420;SDS011;57848;51.938;15.520;2023-03-23T00:39:41;11.07;;;3.72;;
70420;SDS011;57848;51.938;15.520;2023-03-23T00:42:10;10.33;;;3.80;;
70420;SDS011;57848;51.938;15.520;2023-03-23T00:44:37;10.70;;;3.40;;
70420;SDS011;57848;51.938;15.520;2023-03-23T00:47:05;12.73;;;4.00;;
70420;SDS011;57848;51.938;15.520;2023-03-23T00:49:31;8.98;;;3.50;;
70420;SDS011;57848;51.938;15.520;2023-03-23T00:51:59;9.65;;;3.70;;
70420;SDS011;57848;51.938;15.520;2023-03-23T00:54:25;9.93;;;3.63;;
70420;SDS011;57848;51.938;15.520;2023-03-23T00:56:51;9.75;;;3.63;;
70420;SDS011;57848;51.938;15.520;2023-03-23T00:59:17;9.87;;;3.73;;
70420;SDS011;57848;51.938;15.520;2023-03-23T01:01:43;11.02;;;4.40;;
70420;SDS011;57848;51.938;15.520;2023-03-23T01:04:09;12.88;;;4.38;;
70420;SDS011;57848;51.938;15.520;2023-03-23T01:06:37;11.03;;;3.90;;
70420;SDS011;57848;51.938;15.520;2023-03-23T01:09:04;12.93;;;3.95;;
70420;SDS011;57848;51.938;15.520;2023-03-23T01:11:32;8.77;;;3.08;;
70420;SDS011;57848;51.938;15.520;2023-03-23T01:13:58;8.85;;;3.33;;
70420;SDS011;57848;51.938;15.520;2023-03-23T01:16:24;9.83;;;3.00;;
70420;SDS011;57848;51.938;15.520;2023-03-23T01:18:49;10.02;;;3.60;;
70420;SDS011;57848;51.938;15.520;2023-03-23T01:21:18;9.90;;;3.30;;
70420;SDS011;57848;51.938;15.520;2023-03-23T01:23:44;9.43;;;3.78;;
70420;SDS011;57848;51.938;15.520;2023-03-23T01:26:11;9.57;;;2.83;;
70420;SDS011;57848;51.938;15.520;2023-03-23T01:28:38;8.98;;;3.08;;
70420;SDS011;57848;51.938;15.520;2023-03-23T01:31:12;8.30;;;2.83;;
70420;SDS011;57848;51.938;15.520;2023-03-23T01:33:39;9.02;;;3.10;;
70420;SDS011;57848;51.938;15.520;2023-03-23T01:36:13;8.77;;;3.10;;
70420;SDS011;57848;51.938;15.520;2023-03-23T01:38:41;6.72;;;2.35;;
70420;SDS011;57848;51.938;15.520;2023-03-23T01:41:09;11.35;;;2.92;;
70420;SDS011;57848;51.938;15.520;2023-03-23T01:43:35;8.27;;;2.38;;
70420;SDS011;57848;51.938;15.520;2023-03-23T01:46:01;8.03;;;2.47;;
70420;SDS011;57848;51.938;15.520;2023-03-23T01:48:33;10.82;;;2.47;;
70420;SDS011;57848;51.938;15.520;2023-03-23T01:51:03;9.63;;;2.30;;
70420;SDS011;57848;51.938;15.520;2023-03-23T01:53:35;8.43;;;2.22;;
70420;SDS011;57848;51.938;15.520;2023-03-23T01:56:08;6.88;;;1.95;;
70420;SDS011;57848;51.938;15.520;2023-03-23T01:58:36;9.05;;;2.47;;
70420;SDS011;57848;51.938;15.520;2023-03-23T02:01:04;6.78;;;2.22;;
70420;SDS011;57848;51.938;15.520;2023-03-23T02:03:32;6.73;;;2.50;;
70420;SDS011;57848;51.938;15.520;2023-03-23T02:06:00;7.47;;;2.63;;
70420;SDS011;57848;51.938;15.520;2023-03-23T02:08:35;8.25;;;2.38;;
70420;SDS011;57848;51.938;15.520;2023-03-23T02:11:08;7.10;;;2.05;;
70420;SDS011;57848;51.938;15.520;2023-03-23T02:13:38;9.05;;;2.35;;
70420;SDS011;57848;51.938;15.520;2023-03-23T02:16:06;6.87;;;2.37;;
70420;SDS011;57848;51.938;15.520;2023-03-23T02:21:16;8.65;;;2.80;;
70420;SDS011;57848;51.938;15.520;2023-03-23T02:23:59;6.27;;;2.23;;
70420;SDS011;57848;51.938;15.520;2023-03-23T02:34:32;6.03;;;2.05;;
70420;SDS011;57848;51.938;15.520;2023-03-23T02:37:03;7.90;;;2.43;;
70420;SDS011;57848;51.938;15.520;2023-03-23T02:39:45;6.93;;;2.10;;
70420;SDS011;57848;51.938;15.520;2023-03-23T02:42:15;6.20;;;2.35;;
70420;SDS011;57848;51.938;15.520;2023-03-23T02:44:45;7.00;;;2.05;;
70420;SDS011;57848;51.938;15.520;2023-03-23T02:47:17;8.02;;;2.95;;
70420;SDS011;57848;51.938;15.520;2023-03-23T02:49:46;6.50;;;2.00;;
70420;SDS011;57848;51.938;15.520;2023-03-23T02:52:20;7.50;;;2.50;;
70420;SDS011;57848;51.938;15.520;2023-03-23T02:54:49;9.20;;;2.60;;
70420;SDS011;57848;51.938;15.520;2023-03-23T02:57:17;7.88;;;2.10;;
70420;SDS011;57848;51.938;15.520;2023-03-23T02:59:44;6.97;;;1.90;;
70420;SDS011;57848;51.938;15.520;2023-03-23T03:02:29;7.20;;;1.77;;
70420;SDS011;57848;51.938;15.520;2023-03-23T03:07:49;6.20;;;1.80;;
70420;SDS011;57848;51.938;15.520;2023-03-23T03:13:32;6.65;;;2.08;;
70420;SDS011;57848;51.938;15.520;2023-03-23T03:16:14;6.17;;;1.73;;
70420;SDS011;57848;51.938;15.520;2023-03-23T03:21:43;5.38;;;1.77;;
70420;SDS011;57848;51.938;15.520;2023-03-23T03:24:14;5.80;;;1.98;;
70420;SDS011;57848;51.938;15.520;2023-03-23T03:26:45;6.15;;;2.08;;
70420;SDS011;57848;51.938;15.520;2023-03-23T03:29:36;6.10;;;1.70;;
70420;SDS011;57848;51.938;15.520;2023-03-23T03:32:07;6.28;;;1.92;;
70420;SDS011;57848;51.938;15.520;2023-03-23T03:34:36;5.72;;;1.63;;
70420;SDS011;57848;51.938;15.520;2023-03-23T03:37:03;5.00;;;1.50;;
70420;SDS011;57848;51.938;15.520;2023-03-23T03:39:33;8.27;;;1.92;;
70420;SDS011;57848;51.938;15.520;2023-03-23T03:42:02;7.47;;;2.17;;
70420;SDS011;57848;51.938;15.520;2023-03-23T03:44:29;7.18;;;1.85;;
70420;SDS011;57848;51.938;15.520;2023-03-23T03:46:55;5.90;;;1.67;;
70420;SDS011;57848;51.938;15.520;2023-03-23T03:49:21;6.38;;;1.80;;
70420;SDS011;57848;51.938;15.520;2023-03-23T03:51:47;5.22;;;1.30;;
70420;SDS011;57848;51.938;15.520;2023-03-23T03:54:20;7.63;;;1.73;;
70420;SDS011;57848;51.938;15.520;2023-03-23T03:56:45;8.30;;;1.70;;
70420;SDS011;57848;51.938;15.520;2023-03-23T03:59:37;6.43;;;1.93;;
70420;SDS011;57848;51.938;15.520;2023-03-23T04:02:09;8.23;;;1.50;;
70420;SDS011;57848;51.938;15.520;2023-03-23T04:04:34;6.07;;;1.58;;
70420;SDS011;57848;51.938;15.520;2023-03-23T04:07:00;6.43;;;1.93;;
70420;SDS011;57848;51.938;15.520;2023-03-23T04:09:27;5.60;;;1.60;;
70420;SDS011;57848;51.938;15.520;2023-03-23T04:11:53;7.63;;;2.13;;
70420;SDS011;57848;51.938;15.520;2023-03-23T04:14:37;5.30;;;1.50;;
70420;SDS011;57848;51.938;15.520;2023-03-23T04:17:02;6.93;;;1.73;;
70420;SDS011;57848;51.938;15.520;2023-03-23T04:19:28;6.27;;;1.73;;
70420;SDS011;57848;51.938;15.520;2023-03-23T04:21:58;6.10;;;1.55;;
70420;SDS011;57848;51.938;15.520;2023-03-23T04:24:24;7.20;;;1.95;;
70420;SDS011;57848;51.938;15.520;2023-03-23T04:26:53;6.13;;;1.67;;
70420;SDS011;57848;51.938;15.520;2023-03-23T04:29:24;5.27;;;1.27;;
70420;SDS011;57848;51.938;15.520;2023-03-23T04:31:50;5.78;;;1.48;;
70420;SDS011;57848;51.938;15.520;2023-03-23T04:34:27;6.90;;;1.40;;
70420;SDS011;57848;51.938;15.520;2023-03-23T04:36:54;6.82;;;1.70;;
70420;SDS011;57848;51.938;15.520;2023-03-23T04:39:25;5.85;;;1.73;;
70420;SDS011;57848;51.938;15.520;2023-03-23T04:41:54;7.17;;;1.67;;
70420;SDS011;57848;51.938;15.520;2023-03-23T04:44:24;5.57;;;1.45;;
70420;SDS011;57848;51.938;15.520;2023-03-23T04:47:02;5.70;;;1.50;;
70420;SDS011;57848;51.938;15.520;2023-03-23T04:49:31;12.10;;;2.63;;
70420;SDS011;57848;51.938;15.520;2023-03-23T04:52:09;6.68;;;1.70;;
70420;SDS011;57848;51.938;15.520;2023-03-23T04:54:49;6.87;;;2.10;;
70420;SDS011;57848;51.938;15.520;2023-03-23T04:57:15;9.35;;;2.25;;
70420;SDS011;57848;51.938;15.520;2023-03-23T04:59:48;4.70;;;1.42;;
70420;SDS011;57848;51.938;15.520;2023-03-23T05:02:18;6.03;;;1.80;;
70420;SDS011;57848;51.938;15.520;2023-03-23T05:04:45;5.37;;;1.43;;
70420;SDS011;57848;51.938;15.520;2023-03-23T05:07:19;6.70;;;1.58;;
70420;SDS011;57848;51.938;15.520;2023-03-23T05:09:47;5.53;;;1.70;;
70420;SDS011;57848;51.938;15.520;2023-03-23T05:12:14;6.15;;;1.55;;
70420;SDS011;57848;51.938;15.520;2023-03-23T05:14:48;5.50;;;1.45;;
70420;SDS011;57848;51.938;15.520;2023-03-23T05:17:17;5.53;;;1.50;;
70420;SDS011;57848;51.938;15.520;2023-03-23T05:19:46;5.32;;;1.13;;
70420;SDS011;57848;51.938;15.520;2023-03-23T05:22:29;5.65;;;1.63;;
70420;SDS011;57848;51.938;15.520;2023-03-23T05:24:58;9.80;;;1.92;;
70420;SDS011;57848;51.938;15.520;2023-03-23T05:27:24;7.32;;;1.50;;
70420;SDS011;57848;51.938;15.520;2023-03-23T05:29:55;4.97;;;1.47;;
70420;SDS011;57848;51.938;15.520;2023-03-23T05:32:21;7.45;;;1.65;;
70420;SDS011;57848;51.938;15.520;2023-03-23T05:34:58;5.63;;;1.58;;
70420;SDS011;57848;51.938;15.520;2023-03-23T05:37:25;6.18;;;1.65;;
70420;SDS011;57848;51.938;15.520;2023-03-23T05:39:57;5.13;;;1.70;;
70420;SDS011;57848;51.938;15.520;2023-03-23T05:42:43;6.53;;;1.40;;
70420;SDS011;57848;51.938;15.520;2023-03-23T05:45:17;5.68;;;1.55;;
70420;SDS011;57848;51.938;15.520;2023-03-23T05:47:44;8.52;;;2.05;;
70420;SDS011;57848;51.938;15.520;2023-03-23T05:50:15;6.57;;;1.48;;
70420;SDS011;57848;51.938;15.520;2023-03-23T05:52:42;5.88;;;1.60;;
70420;SDS011;57848;51.938;15.520;2023-03-23T05:55:11;5.93;;;1.63;;
70420;SDS011;57848;51.938;15.520;2023-03-23T05:57:39;8.45;;;1.80;;
70420;SDS011;57848;51.938;15.520;2023-03-23T06:00:10;6.63;;;1.70;;
70420;SDS011;57848;51.938;15.520;2023-03-23T06:02:47;6.53;;;1.50;;
70420;SDS011;57848;51.938;15.520;2023-03-23T06:05:18;6.82;;;1.88;;
70420;SDS011;57848;51.938;15.520;2023-03-23T06:07:49;5.77;;;1.63;;
70420;SDS011;57848;51.938;15.520;2023-03-23T06:10:14;5.90;;;1.40;;
70420;SDS011;57848;51.938;15.520;2023-03-23T06:12:44;7.43;;;2.75;;
70420;SDS011;57848;51.938;15.520;2023-03-23T06:15:18;6.70;;;1.37;;
70420;SDS011;57848;51.938;15.520;2023-03-23T06:17:59;5.78;;;1.60;;
70420;SDS011;57848;51.938;15.520;2023-03-23T06:20:55;5.70;;;2.03;;
70420;SDS011;57848;51.938;15.520;2023-03-23T06:23:45;5.30;;;1.52;;
70420;SDS011;57848;51.938;15.520;2023-03-23T06:26:12;8.82;;;1.67;;
70420;SDS011;57848;51.938;15.520;2023-03-23T06:28:43;6.33;;;1.90;;
70420;SDS011;57848;51.938;15.520;2023-03-23T06:31:08;5.82;;;1.55;;
70420;SDS011;57848;51.938;15.520;2023-03-23T06:33:35;5.85;;;1.80;;
70420;SDS011;57848;51.938;15.520;2023-03-23T06:36:21;7.80;;;1.80;;
70420;SDS011;57848;51.938;15.520;2023-03-23T06:38:54;5.72;;;1.45;;
70420;SDS011;57848;51.938;15.520;2023-03-23T06:41:27;9.63;;;2.03;;
70420;SDS011;57848;51.938;15.520;2023-03-23T06:43:53;9.30;;;1.80;;
70420;SDS011;57848;51.938;15.520;2023-03-23T06:46:24;6.72;;;1.98;;
70420;SDS011;57848;51.938;15.520;2023-03-23T06:49:14;6.00;;;1.58;;
70420;SDS011;57848;51.938;15.520;2023-03-23T06:51:48;6.53;;;1.60;;
70420;SDS011;57848;51.938;15.520;2023-03-23T06:54:13;7.33;;;1.90;;
70420;SDS011;57848;51.938;15.520;2023-03-23T06:56:40;5.72;;;1.60;;
70420;SDS011;57848;51.938;15.520;2023-03-23T06:59:07;7.07;;;2.05;;
70420;SDS011;57848;51.938;15.520;2023-03-23T07:01:33;6.55;;;1.90;;
70420;SDS011;57848;51.938;15.520;2023-03-23T07:04:00;6.93;;;1.93;;
70420;SDS011;57848;51.938;15.520;2023-03-23T07:06:35;6.15;;;1.88;;
70420;SDS011;57848;51.938;15.520;2023-03-23T07:09:04;6.38;;;1.60;;
70420;SDS011;57848;51.938;15.520;2023-03-23T07:11:31;5.95;;;1.73;;
70420;SDS011;57848;51.938;15.520;2023-03-23T07:14:01;6.80;;;1.95;;
70420;SDS011;57848;51.938;15.520;2023-03-23T07:16:26;5.90;;;1.63;;
70420;SDS011;57848;51.938;15.520;2023-03-23T07:18:52;5.93;;;1.87;;
70420;SDS011;57848;51.938;15.520;2023-03-23T07:21:17;7.03;;;1.90;;
70420;SDS011;57848;51.938;15.520;2023-03-23T07:23:43;5.75;;;1.88;;
70420;SDS011;57848;51.938;15.520;2023-03-23T07:26:15;6.47;;;2.08;;
70420;SDS011;57848;51.938;15.520;2023-03-23T07:28:48;6.80;;;2.30;;
70420;SDS011;57848;51.938;15.520;2023-03-23T07:31:20;6.27;;;2.00;;
70420;SDS011;57848;51.938;15.520;2023-03-23T07:33:47;7.53;;;2.13;;
70420;SDS011;57848;51.938;15.520;2023-03-23T07:36:12;5.72;;;1.80;;
70420;SDS011;57848;51.938;15.520;2023-03-23T07:38:38;8.37;;;2.30;;
70420;SDS011;57848;51.938;15.520;2023-03-23T07:41:03;6.50;;;1.93;;
70420;SDS011;57848;51.938;15.520;2023-03-23T07:43:30;6.05;;;2.20;;
70420;SDS011;57848;51.938;15.520;2023-03-23T07:45:58;7.13;;;1.98;;
70420;SDS011;57848;51.938;15.520;2023-03-23T07:48:32;7.63;;;2.20;;
70420;SDS011;57848;51.938;15.520;2023-03-23T07:50:58;7.00;;;2.00;;
70420;SDS011;57848;51.938;15.520;2023-03-23T07:53:25;6.67;;;2.13;;
70420;SDS011;57848;51.938;15.520;2023-03-23T07:56:05;5.40;;;1.65;;
70420;SDS011;57848;51.938;15.520;2023-03-23T07:58:57;7.38;;;2.10;;
70420;SDS011;57848;51.938;15.520;2023-03-23T08:01:22;6.07;;;1.70;;
70420;SDS011;57848;51.938;15.520;2023-03-23T08:04:09;5.75;;;1.60;;
70420;SDS011;57848;51.938;15.520;2023-03-23T08:09:40;6.15;;;1.60;;
70420;SDS011;57848;51.938;15.520;2023-03-23T08:12:54;5.40;;;1.87;;
70420;SDS011;57848;51.938;15.520;2023-03-23T08:15:40;4.40;;;1.33;;
70420;SDS011;57848;51.938;15.520;2023-03-23T08:18:29;6.45;;;1.65;;
70420;SDS011;57848;51.938;15.520;2023-03-23T08:21:31;5.18;;;1.60;;
70420;SDS011;57848;51.938;15.520;2023-03-23T08:24:24;6.75;;;1.45;;
70420;SDS011;57848;51.938;15.520;2023-03-23T08:26:57;5.73;;;1.57;;
70420;SDS011;57848;51.938;15.520;2023-03-23T08:29:32;5.35;;;1.58;;
70420;SDS011;57848;51.938;15.520;2023-03-23T08:32:21;7.50;;;1.65;;
70420;SDS011;57848;51.938;15.520;2023-03-23T08:35:07;5.95;;;1.50;;
70420;SDS011;57848;51.938;15.520;2023-03-23T08:37:47;5.47;;;1.50;;
70420;SDS011;57848;51.938;15.520;2023-03-23T08:40:37;4.90;;;1.20;;
70420;SDS011;57848;51.938;15.520;2023-03-23T08:43:27;8.68;;;1.40;;
70420;SDS011;57848;51.938;15.520;2023-03-23T08:46:16;5.20;;;1.48;;
70420;SDS011;57848;51.938;15.520;2023-03-23T08:49:02;8.32;;;1.50;;
70420;SDS011;57848;51.938;15.520;2023-03-23T08:51:51;5.35;;;1.58;;
70420;SDS011;57848;51.938;15.520;2023-03-23T08:54:29;4.63;;;1.30;;
70420;SDS011;57848;51.938;15.520;2023-03-23T08:57:16;6.47;;;1.50;;
70420;SDS011;57848;51.938;15.520;2023-03-23T09:00:19;9.07;;;1.60;;
70420;SDS011;57848;51.938;15.520;2023-03-23T09:03:00;5.78;;;1.40;;
70420;SDS011;57848;51.938;15.520;2023-03-23T09:05:38;5.68;;;1.60;;
70420;SDS011;57848;51.938;15.520;2023-03-23T09:08:25;6.03;;;1.63;;
70420;SDS011;57848;51.938;15.520;2023-03-23T09:10:52;7.88;;;1.30;;
70420;SDS011;57848;51.938;15.520;2023-03-23T09:13:18;7.30;;;1.50;;
70420;SDS011;57848;51.938;15.520;2023-03-23T09:15:43;9.37;;;2.40;;
70420;SDS011;57848;51.938;15.520;2023-03-23T09:18:10;6.07;;;1.60;;
70420;SDS011;57848;51.938;15.520;2023-03-23T09:20:36;11.07;;;1.60;;
70420;SDS011;57848;51.938;15.520;2023-03-23T09:23:03;6.30;;;1.73;;
70420;SDS011;57848;51.938;15.520;2023-03-23T09:25:29;4.82;;;1.20;;
70420;SDS011;57848;51.938;15.520;2023-03-23T09:27:55;7.70;;;1.67;;
70420;SDS011;57848;51.938;15.520;2023-03-23T09:30:28;6.22;;;1.35;;
70420;SDS011;57848;51.938;15.520;2023-03-23T09:32:56;5.43;;;1.58;;
70420;SDS011;57848;51.938;15.520;2023-03-23T09:35:22;5.13;;;1.63;;
70420;SDS011;57848;51.938;15.520;2023-03-23T09:37:50;5.38;;;1.48;;
70420;SDS011;57848;51.938;15.520;2023-03-23T09:40:19;5.10;;;1.20;;
70420;SDS011;57848;51.938;15.520;2023-03-23T09:50:57;6.60;;;1.60;;
70420;SDS011;57848;51.938;15.520;2023-03-23T09:53:32;5.00;;;1.37;;
70420;SDS011;57848;51.938;15.520;2023-03-23T09:56:02;5.25;;;1.70;;
70420;SDS011;57848;51.938;15.520;2023-03-23T09:58:46;5.32;;;1.60;;
70420;SDS011;57848;51.938;15.520;2023-03-23T10:01:17;8.30;;;1.50;;
70420;SDS011;57848;51.938;15.520;2023-03-23T10:03:48;6.72;;;1.40;;
70420;SDS011;57848;51.938;15.520;2023-03-23T10:06:23;5.70;;;1.60;;
70420;SDS011;57848;51.938;15.520;2023-03-23T10:08:58;6.43;;;2.03;;
70420;SDS011;57848;51.938;15.520;2023-03-23T10:19:54;6.28;;;1.75;;
70420;SDS011;57848;51.938;15.520;2023-03-23T10:22:37;6.05;;;1.50;;
70420;SDS011;57848;51.938;15.520;2023-03-23T10:25:14;6.63;;;2.27;;
70420;SDS011;57848;51.938;15.520;2023-03-23T10:30:30;6.68;;;1.90;;
70420;SDS011;57848;51.938;15.520;2023-03-23T10:33:10;6.55;;;2.13;;
70420;SDS011;57848;51.938;15.520;2023-03-23T10:35:43;5.82;;;1.70;;
70420;SDS011;57848;51.938;15.520;2023-03-23T10:38:15;6.80;;;2.20;;
70420;SDS011;57848;51.938;15.520;2023-03-23T10:40:49;6.30;;;2.38;;
70420;SDS011;57848;51.938;15.520;2023-03-23T10:43:18;5.97;;;1.83;;
70420;SDS011;57848;51.938;15.520;2023-03-23T10:45:48;6.47;;;1.95;;
70420;SDS011;57848;51.938;15.520;2023-03-23T10:48:26;6.45;;;1.70;;
70420;SDS011;57848;51.938;15.520;2023-03-23T10:50:58;7.30;;;2.10;;
70420;SDS011;57848;51.938;15.520;2023-03-23T10:53:37;7.20;;;2.38;;
70420;SDS011;57848;51.938;15.520;2023-03-23T10:56:28;7.47;;;1.92;;
70420;SDS011;57848;51.938;15.520;2023-03-23T10:59:10;6.72;;;2.28;;
70420;SDS011;57848;51.938;15.520;2023-03-23T11:01:42;6.18;;;1.73;;
70420;SDS011;57848;51.938;15.520;2023-03-23T11:04:13;5.90;;;1.93;;
70420;SDS011;57848;51.938;15.520;2023-03-23T11:06:43;7.28;;;2.08;;
70420;SDS011;57848;51.938;15.520;2023-03-23T11:09:12;5.90;;;1.90;;
70420;SDS011;57848;51.938;15.520;2023-03-23T11:11:41;6.97;;;1.92;;
70420;SDS011;57848;51.938;15.520;2023-03-23T11:14:24;5.93;;;1.73;;
70420;SDS011;57848;51.938;15.520;2023-03-23T11:16:53;9.17;;;2.17;;
70420;SDS011;57848;51.938;15.520;2023-03-23T11:22:00;7.38;;;2.17;;
70420;SDS011;57848;51.938;15.520;2023-03-23T11:24:30;5.25;;;1.88;;
70420;SDS011;57848;51.938;15.520;2023-03-23T11:26:58;5.93;;;1.70;;
70420;SDS011;57848;51.938;15.520;2023-03-23T11:29:25;6.00;;;1.40;;
70420;SDS011;57848;51.938;15.520;2023-03-23T11:34:30;5.30;;;1.60;;
70420;SDS011;57848;51.938;15.520;2023-03-23T11:37:04;6.18;;;1.58;;
70420;SDS011;57848;51.938;15.520;2023-03-23T11:39:34;7.35;;;1.60;;
70420;SDS011;57848;51.938;15.520;2023-03-23T11:42:16;5.23;;;1.47;;
70420;SDS011;57848;51.938;15.520;2023-03-23T11:44:44;8.60;;;2.40;;
70420;SDS011;57848;51.938;15.520;2023-03-23T11:52:41;7.07;;;1.63;;
70420;SDS011;57848;51.938;15.520;2023-03-23T11:55:13;6.15;;;1.80;;
70420;SDS011;57848;51.938;15.520;2023-03-23T11:57:42;5.00;;;1.60;;
70420;SDS011;57848;51.938;15.520;2023-03-23T12:00:15;4.75;;;1.52;;
70420;SDS011;57848;51.938;15.520;2023-03-23T12:13:50;6.47;;;1.40;;
70420;SDS011;57848;51.938;15.520;2023-03-23T12:21:50;5.32;;;1.60;;
70420;SDS011;57848;51.938;15.520;2023-03-23T12:24:30;5.70;;;1.70;;
70420;SDS011;57848;51.938;15.520;2023-03-23T12:27:06;5.55;;;1.67;;
70420;SDS011;57848;51.938;15.520;2023-03-23T12:29:56;5.47;;;1.70;;
70420;SDS011;57848;51.938;15.520;2023-03-23T12:38:18;7.88;;;2.03;;
70420;SDS011;57848;51.938;15.520;2023-03-23T12:43:43;6.60;;;1.40;;
70420;SDS011;57848;51.938;15.520;2023-03-23T12:46:19;5.70;;;1.60;;
70420;SDS011;57848;51.938;15.520;2023-03-23T12:51:51;5.60;;;1.52;;
70420;SDS011;57848;51.938;15.520;2023-03-23T12:54:40;6.13;;;1.83;;
70420;SDS011;57848;51.938;15.520;2023-03-23T12:59:57;6.00;;;1.80;;
70420;SDS011;57848;51.938;15.520;2023-03-23T13:02:29;5.43;;;1.58;;
70420;SDS011;57848;51.938;15.520;2023-03-23T13:05:03;5.93;;;1.95;;
70420;SDS011;57848;51.938;15.520;2023-03-23T13:07:37;8.25;;;1.83;;
70420;SDS011;57848;51.938;15.520;2023-03-23T13:10:19;5.43;;;1.98;;
70420;SDS011;57848;51.938;15.520;2023-03-23T13:12:47;6.00;;;2.10;;
70420;SDS011;57848;51.938;15.520;2023-03-23T13:15:22;6.57;;;1.98;;
70420;SDS011;57848;51.938;15.520;2023-03-23T13:18:16;6.03;;;1.70;;
70420;SDS011;57848;51.938;15.520;2023-03-23T13:23:32;5.63;;;1.55;;
70420;SDS011;57848;51.938;15.520;2023-03-23T13:26:13;7.03;;;1.83;;
70420;SDS011;57848;51.938;15.520;2023-03-23T13:31:37;6.70;;;1.67;;
70420;SDS011;57848;51.938;15.520;2023-03-23T13:36:56;5.57;;;1.55;;
70420;SDS011;57848;51.938;15.520;2023-03-23T13:39:24;5.87;;;1.90;;
70420;SDS011;57848;51.938;15.520;2023-03-23T13:44:38;5.32;;;1.40;;
70420;SDS011;57848;51.938;15.520;2023-03-23T13:47:16;5.10;;;1.50;;
70420;SDS011;57848;51.938;15.520;2023-03-23T13:49:54;6.55;;;1.40;;
70420;SDS011;57848;51.938;15.520;2023-03-23T13:57:54;5.80;;;1.52;;
70420;SDS011;57848;51.938;15.520;2023-03-23T14:03:14;6.30;;;1.65;;
70420;SDS011;57848;51.938;15.520;2023-03-23T14:06:02;5.47;;;1.50;;
70420;SDS011;57848;51.938;15.520;2023-03-23T14:08:40;6.13;;;1.40;;
70420;SDS011;57848;51.938;15.520;2023-03-23T14:16:49;5.10;;;1.35;;
70420;SDS011;57848;51.938;15.520;2023-03-23T14:19:21;6.60;;;1.40;;
70420;SDS011;57848;51.938;15.520;2023-03-23T14:21:59;4.85;;;1.60;;
70420;SDS011;57848;51.938;15.520;2023-03-23T14:24:27;5.75;;;1.50;;
70420;SDS011;57848;51.938;15.520;2023-03-23T14:27:07;4.55;;;1.40;;
70420;SDS011;57848;51.938;15.520;2023-03-23T14:29:35;5.78;;;1.52;;
70420;SDS011;57848;51.938;15.520;2023-03-23T14:32:01;5.00;;;1.40;;
70420;SDS011;57848;51.938;15.520;2023-03-23T14:34:30;5.03;;;1.60;;
70420;SDS011;57848;51.938;15.520;2023-03-23T14:36:57;5.22;;;1.38;;
70420;SDS011;57848;51.938;15.520;2023-03-23T14:40:08;4.93;;;1.48;;
70420;SDS011;57848;51.938;15.520;2023-03-23T14:42:15;6.65;;;1.90;;
70420;SDS011;57848;51.938;15.520;2023-03-23T14:44:43;8.20;;;2.70;;
70420;SDS011;57848;51.938;15.520;2023-03-23T14:47:13;7.43;;;2.60;;
70420;SDS011;57848;51.938;15.520;2023-03-23T14:49:44;8.02;;;2.47;;
70420;SDS011;57848;51.938;15.520;2023-03-23T14:52:14;5.65;;;1.95;;
70420;SDS011;57848;51.938;15.520;2023-03-23T14:54:41;8.57;;;1.65;;
70420;SDS011;57848;51.938;15.520;2023-03-23T14:57:12;6.23;;;2.00;;
70420;SDS011;57848;51.938;15.520;2023-03-23T14:59:45;6.13;;;2.00;;
70420;SDS011;57848;51.938;15.520;2023-03-23T15:02:34;5.68;;;1.90;;
70420;SDS011;57848;51.938;15.520;2023-03-23T15:05:05;7.18;;;2.17;;
70420;SDS011;57848;51.938;15.520;2023-03-23T15:07:34;5.68;;;1.88;;
70420;SDS011;57848;51.938;15.520;2023-03-23T15:10:01;6.47;;;2.13;;
70420;SDS011;57848;51.938;15.520;2023-03-23T15:12:31;5.18;;;1.65;;
70420;SDS011;57848;51.938;15.520;2023-03-23T15:14:58;6.05;;;1.67;;
70420;SDS011;57848;51.938;15.520;2023-03-23T15:17:31;6.40;;;1.60;;
70420;SDS011;57848;51.938;15.520;2023-03-23T15:20:07;6.07;;;1.70;;
70420;SDS011;57848;51.938;15.520;2023-03-23T15:22:45;6.30;;;1.60;;
70420;SDS011;57848;51.938;15.520;2023-03-23T15:25:16;8.27;;;2.78;;
70420;SDS011;57848;51.938;15.520;2023-03-23T15:28:30;5.35;;;1.63;;
70420;SDS011;57848;51.938;15.520;2023-03-23T15:30:53;7.15;;;2.35;;
70420;SDS011;57848;51.938;15.520;2023-03-23T15:33:23;6.47;;;1.77;;
70420;SDS011;57848;51.938;15.520;2023-03-23T15:35:53;6.25;;;1.70;;
70420;SDS011;57848;51.938;15.520;2023-03-23T15:38:23;5.85;;;1.50;;
70420;SDS011;57848;51.938;15.520;2023-03-23T15:40:57;5.65;;;1.52;;
70420;SDS011;57848;51.938;15.520;2023-03-23T15:43:25;4.90;;;1.30;;
70420;SDS011;57848;51.938;15.520;2023-03-23T15:48:25;5.95;;;1.90;;
70420;SDS011;57848;51.938;15.520;2023-03-23T15:50:52;7.40;;;2.30;;
70420;SDS011;57848;51.938;15.520;2023-03-23T15:53:19;7.33;;;2.03;;
70420;SDS011;57848;51.938;15.520;2023-03-23T15:55:50;6.15;;;1.95;;
70420;SDS011;57848;51.938;15.520;2023-03-23T15:58:16;7.20;;;1.80;;
70420;SDS011;57848;51.938;15.520;2023-03-23T16:00:41;5.72;;;1.75;;
70420;SDS011;57848;51.938;15.520;2023-03-23T16:03:11;8.93;;;2.20;;
70420;SDS011;57848;51.938;15.520;2023-03-23T16:05:40;6.45;;;1.80;;
70420;SDS011;57848;51.938;15.520;2023-03-23T16:08:07;7.47;;;1.80;;
70420;SDS011;57848;51.938;15.520;2023-03-23T16:10:35;6.22;;;1.80;;
70420;SDS011;57848;51.938;15.520;2023-03-23T16:13:01;5.22;;;1.58;;
70420;SDS011;57848;51.938;15.520;2023-03-23T16:15:26;5.50;;;1.40;;
70420;SDS011;57848;51.938;15.520;2023-03-23T16:17:52;7.53;;;2.07;;
70420;SDS011;57848;51.938;15.520;2023-03-23T16:20:18;6.63;;;2.07;;
70420;SDS011;57848;51.938;15.520;2023-03-23T16:22:45;7.90;;;2.40;;
70420;SDS011;57848;51.938;15.520;2023-03-23T16:25:11;8.68;;;2.92;;
70420;SDS011;57848;51.938;15.520;2023-03-23T16:27:38;9.60;;;2.92;;
70420;SDS011;57848;51.938;15.520;2023-03-23T16:30:10;8.70;;;2.85;;
70420;SDS011;57848;51.938;15.520;2023-03-23T16:32:39;9.60;;;3.27;;
70420;SDS011;57848;51.938;15.520;2023-03-23T16:35:04;6.80;;;2.25;;
70420;SDS011;57848;51.938;15.520;2023-03-23T16:37:30;6.27;;;2.03;;
70420;SDS011;57848;51.938;15.520;2023-03-23T16:39:57;6.15;;;2.10;;
70420;SDS011;57848;51.938;15.520;2023-03-23T16:42:23;6.47;;;2.03;;
70420;SDS011;57848;51.938;15.520;2023-03-23T16:44:48;6.50;;;1.90;;
70420;SDS011;57848;51.938;15.520;2023-03-23T16:47:15;6.18;;;1.98;;
70420;SDS011;57848;51.938;15.520;2023-03-23T16:49:42;5.40;;;1.70;;
70420;SDS011;57848;51.938;15.520;2023-03-23T16:52:08;5.87;;;2.10;;